createdAt,value
2019-03-28T00:01:59.562Z,30.90
2019-03-28T00:04:27.539Z,30.13
2019-03-28T00:06:55.442Z,36.17
2019-03-28T00:09:23.304Z,31.40
2019-03-28T00:11:51.172Z,28.40
2019-03-28T00:14:19.274Z,30.53
2019-03-28T00:16:47.205Z,28.27
2019-03-28T00:19:14.985Z,33.23
2019-03-28T00:21:42.756Z,31.20
2019-03-28T00:24:14.902Z,33.67
2019-03-28T00:26:42.604Z,30.03
2019-03-28T00:29:10.394Z,39.40
2019-03-28T00:31:38.172Z,37.30
2019-03-28T00:34:05.866Z,34.40
2019-03-28T00:36:33.567Z,32.50
2019-03-28T00:39:01.303Z,36.30
2019-03-28T00:41:29.010Z,31.70
2019-03-28T00:43:56.739Z,30.63
2019-03-28T00:46:24.709Z,36.73
2019-03-28T00:48:53.164Z,32.63
2019-03-28T00:51:20.963Z,35.20
2019-03-28T00:53:48.731Z,40.27
2019-03-28T00:56:16.499Z,36.67
2019-03-28T00:58:44.262Z,36.27
2019-03-28T01:01:12.080Z,32.30
2019-03-28T01:03:39.898Z,34.73
2019-03-28T01:06:07.757Z,40.23
2019-03-28T01:08:35.522Z,32.87
2019-03-28T01:11:03.494Z,35.73
2019-03-28T01:13:31.222Z,36.50
2019-03-28T01:15:59.037Z,36.43
2019-03-28T01:18:26.997Z,37.23
2019-03-28T01:20:54.870Z,43.23
2019-03-28T01:23:22.734Z,34.27
2019-03-28T01:25:50.506Z,35.90
2019-03-28T01:28:18.234Z,38.47
2019-03-28T01:30:46.253Z,37.37
2019-03-28T01:33:14.103Z,38.40
2019-03-28T01:35:41.870Z,38.70
2019-03-28T01:38:09.635Z,37.83
2019-03-28T01:40:37.405Z,37.23
2019-03-28T01:43:05.280Z,36.17
2019-03-28T01:45:33.322Z,38.50
2019-03-28T01:48:01.218Z,36.93
2019-03-28T01:50:28.986Z,36.30
2019-03-28T01:52:56.846Z,33.63
2019-03-28T01:55:24.816Z,34.17
2019-03-28T01:57:52.684Z,33.13
2019-03-28T02:00:20.553Z,34.07
2019-03-28T02:02:48.524Z,35.03
2019-03-28T02:05:16.398Z,36.23
2019-03-28T02:07:44.163Z,33.10
2019-03-28T02:10:11.969Z,35.10
2019-03-28T02:12:39.802Z,30.43
2019-03-28T02:15:09.208Z,31.27
2019-03-28T02:17:37.318Z,34.63
2019-03-28T02:20:06.553Z,34.48
2019-03-28T02:22:34.280Z,31.13
2019-03-28T02:25:02.111Z,34.60
2019-03-28T02:27:29.972Z,33.27
2019-03-28T02:29:58.330Z,38.13
2019-03-28T02:32:26.327Z,31.30
2019-03-28T02:34:54.199Z,33.83
2019-03-28T02:37:21.961Z,37.43
2019-03-28T02:39:50.671Z,34.30
2019-03-28T02:42:18.713Z,32.63
2019-03-28T02:44:46.419Z,30.23
2019-03-28T02:47:14.127Z,32.37
2019-03-28T02:49:41.908Z,35.80
2019-03-28T02:52:09.559Z,37.23
2019-03-28T02:54:37.427Z,35.83
2019-03-28T02:57:05.218Z,36.37
2019-03-28T02:59:32.981Z,35.87
2019-03-28T03:02:00.844Z,32.67
2019-03-28T03:04:28.600Z,35.83
2019-03-28T03:06:56.374Z,30.03
2019-03-28T03:09:24.124Z,33.20
2019-03-28T03:11:51.768Z,38.43
2019-03-28T03:14:19.684Z,45.93
2019-03-28T03:16:48.814Z,40.77
2019-03-28T03:19:16.955Z,31.77
2019-03-28T03:21:44.704Z,37.30
2019-03-28T03:24:12.477Z,38.60
2019-03-28T03:26:40.226Z,42.03
2019-03-28T03:29:08.006Z,39.37
2019-03-28T03:31:35.765Z,38.07
2019-03-28T03:34:05.148Z,38.33
2019-03-28T03:36:32.839Z,41.43
2019-03-28T03:39:00.493Z,38.73
2019-03-28T03:41:28.281Z,39.93
2019-03-28T03:43:56.141Z,34.33
2019-03-28T03:46:24.010Z,36.47
2019-03-28T03:48:51.792Z,38.93
2019-03-28T03:51:19.546Z,33.43
2019-03-28T03:53:47.410Z,37.50
2019-03-28T03:56:15.278Z,34.00
2019-03-28T03:58:43.051Z,35.13
2019-03-28T04:01:10.912Z,35.40
2019-03-28T04:03:38.687Z,39.30
2019-03-28T04:06:06.450Z,35.57
2019-03-28T04:08:34.315Z,31.50
2019-03-28T04:11:02.086Z,37.60
2019-03-28T04:13:29.857Z,39.47
2019-03-28T04:15:57.717Z,39.50
2019-03-28T04:18:25.598Z,36.00
2019-03-28T04:20:53.459Z,33.77
2019-03-28T04:23:21.223Z,36.77
2019-03-28T04:25:48.990Z,34.80
2019-03-28T04:28:30.668Z,38.37
2019-03-28T04:30:46.253Z,36.87
2019-03-28T04:33:13.954Z,38.70
2019-03-28T04:35:41.677Z,35.83
2019-03-28T04:38:09.479Z,31.40
2019-03-28T04:40:37.195Z,38.27
2019-03-28T04:43:05.079Z,32.70
2019-03-28T04:45:32.871Z,35.33
2019-03-28T04:48:01.509Z,32.90
2019-03-28T04:50:29.611Z,40.27
2019-03-28T04:52:57.581Z,42.93
2019-03-28T04:55:25.553Z,35.03
2019-03-28T04:57:53.420Z,37.80
2019-03-28T05:00:21.488Z,35.47
2019-03-28T05:02:49.370Z,34.47
2019-03-28T05:05:17.230Z,34.60
2019-03-28T05:07:44.989Z,39.77
2019-03-28T05:10:14.329Z,39.73
2019-03-28T05:12:43.287Z,36.13
2019-03-28T05:15:11.358Z,36.43
2019-03-28T05:17:38.999Z,35.90
2019-03-28T05:20:07.100Z,34.53
2019-03-28T05:22:34.748Z,42.63
2019-03-28T05:25:02.419Z,38.80
2019-03-28T05:27:30.202Z,41.70
2019-03-28T05:29:58.063Z,35.83
2019-03-28T05:32:26.261Z,40.77
2019-03-28T05:34:54.088Z,39.57
2019-03-28T05:37:21.751Z,38.97
2019-03-28T05:39:49.496Z,38.07
2019-03-28T05:42:17.501Z,41.03
2019-03-28T05:44:45.576Z,40.47
2019-03-28T05:47:13.341Z,40.83
2019-03-28T05:49:41.123Z,42.43
2019-03-28T05:52:11.631Z,37.57
2019-03-28T05:54:38.225Z,42.80
2019-03-28T05:57:05.938Z,51.90
2019-03-28T05:59:33.814Z,49.20
2019-03-28T06:02:01.683Z,43.70
2019-03-28T06:04:29.431Z,40.93
2019-03-28T06:06:57.305Z,40.87
2019-03-28T06:09:25.090Z,39.87
2019-03-28T06:11:53.128Z,39.53
2019-03-28T06:14:20.799Z,42.63
2019-03-28T06:16:48.690Z,52.13
2019-03-28T06:19:16.446Z,81.73
2019-03-28T06:21:44.227Z,50.40
2019-03-28T06:24:11.994Z,49.77
2019-03-28T06:26:39.735Z,46.63
2019-03-28T06:29:08.739Z,46.47
2019-03-28T06:31:36.827Z,45.60
2019-03-28T06:34:05.401Z,46.55
2019-03-28T06:36:33.170Z,59.27
2019-03-28T06:39:00.885Z,45.83
2019-03-28T06:41:28.595Z,55.77
2019-03-28T06:43:56.232Z,42.63
2019-03-28T06:46:23.945Z,42.33
2019-03-28T06:48:51.688Z,42.90
2019-03-28T06:51:19.450Z,38.47
2019-03-28T06:53:47.115Z,39.97
2019-03-28T06:56:14.813Z,34.37
2019-03-28T06:58:42.542Z,41.00
2019-03-28T07:01:10.198Z,38.13
2019-03-28T07:03:38.452Z,34.70
2019-03-28T07:06:06.304Z,34.67
2019-03-28T07:08:34.126Z,33.80
2019-03-28T07:11:02.520Z,37.33
2019-03-28T07:13:30.365Z,39.93
2019-03-28T07:15:58.134Z,38.93
2019-03-28T07:18:25.901Z,40.60
2019-03-28T07:20:53.547Z,39.37
2019-03-28T07:23:21.336Z,35.97
2019-03-28T07:25:48.986Z,37.77
2019-03-28T07:28:16.970Z,32.97
2019-03-28T07:30:45.362Z,35.83
2019-03-28T07:33:13.160Z,34.70
2019-03-28T07:35:40.885Z,33.60
2019-03-28T07:38:08.590Z,31.40
2019-03-28T07:40:36.375Z,36.90
2019-03-28T07:43:04.279Z,33.80
2019-03-28T07:45:34.456Z,36.07
2019-03-28T07:48:01.456Z,32.00
2019-03-28T07:50:29.320Z,42.37
2019-03-28T07:52:57.079Z,48.90
2019-03-28T07:55:24.745Z,49.83
2019-03-28T07:57:52.511Z,36.90
2019-03-28T08:00:20.277Z,45.67
2019-03-28T08:02:48.147Z,35.90
2019-03-28T08:05:15.987Z,33.33
2019-03-28T08:07:45.778Z,37.17
2019-03-28T08:10:13.294Z,40.57
2019-03-28T08:12:41.163Z,36.20
2019-03-28T08:15:09.541Z,54.97
2019-03-28T08:17:37.298Z,45.87
2019-03-28T08:20:06.212Z,40.90
2019-03-28T08:22:34.062Z,44.17
2019-03-28T08:25:01.933Z,41.57
2019-03-28T08:27:29.580Z,30.30
2019-03-28T08:29:57.956Z,38.30
2019-03-28T08:32:27.381Z,40.00
2019-03-28T08:34:55.860Z,29.83
2019-03-28T08:37:24.327Z,31.53
2019-03-28T08:39:52.109Z,38.60
2019-03-28T08:42:19.886Z,31.07
2019-03-28T08:44:47.637Z,41.33
2019-03-28T08:47:15.410Z,32.17
2019-03-28T08:49:43.286Z,45.57
2019-03-28T08:52:11.959Z,36.43
2019-03-28T08:54:40.041Z,34.93
2019-03-28T08:57:07.683Z,26.83
2019-03-28T08:59:35.470Z,31.07
2019-03-28T09:02:05.072Z,26.93
2019-03-28T09:04:32.723Z,24.50
2019-03-28T09:07:00.449Z,22.90
2019-03-28T09:09:28.179Z,26.00
2019-03-28T09:11:55.920Z,26.63
2019-03-28T09:14:23.710Z,28.20
2019-03-28T09:16:51.347Z,24.23
2019-03-28T09:19:19.032Z,24.77
2019-03-28T09:21:46.894Z,26.23
2019-03-28T09:24:14.762Z,30.03
2019-03-28T09:26:42.636Z,25.47
2019-03-28T09:29:10.504Z,24.60
2019-03-28T09:31:38.265Z,23.57
2019-03-28T09:34:06.152Z,20.63
2019-03-28T09:36:33.810Z,26.27
2019-03-28T09:39:01.580Z,27.23
2019-03-28T09:41:29.416Z,24.00
2019-03-28T09:43:57.307Z,15.93
2019-03-28T09:46:25.078Z,18.17
2019-03-28T09:48:52.836Z,18.93
2019-03-28T09:51:20.511Z,15.23
2019-03-28T09:53:48.347Z,12.80
2019-03-28T09:56:16.120Z,15.27
2019-03-28T09:58:43.888Z,15.20
2019-03-28T10:01:11.598Z,15.07
2019-03-28T10:03:41.196Z,14.67
2019-03-28T10:06:08.945Z,12.50
2019-03-28T10:08:36.644Z,13.63
2019-03-28T10:11:04.297Z,14.40
2019-03-28T10:13:32.008Z,15.87
2019-03-28T10:15:59.701Z,12.97
2019-03-28T10:18:29.954Z,19.43
2019-03-28T10:20:56.771Z,19.43
2019-03-28T10:23:24.630Z,16.73
2019-03-28T10:25:52.481Z,22.20
2019-03-28T10:28:20.375Z,45.93
2019-03-28T10:30:48.236Z,33.87
2019-03-28T10:33:15.992Z,15.73
2019-03-28T10:35:43.775Z,17.73
2019-03-28T10:38:11.523Z,13.60
2019-03-28T10:40:39.295Z,13.00
2019-03-28T10:43:06.943Z,13.20
2019-03-28T10:45:34.685Z,14.07
2019-03-28T10:48:02.488Z,15.17
2019-03-28T10:50:40.772Z,11.13
2019-03-28T10:52:59.544Z,14.07
2019-03-28T10:55:27.269Z,15.60
2019-03-28T10:57:54.933Z,9.80
2019-03-28T11:00:24.320Z,8.67
2019-03-28T11:02:52.184Z,8.00
2019-03-28T11:05:19.926Z,9.27
2019-03-28T11:07:47.699Z,13.03
2019-03-28T11:10:15.659Z,15.37
2019-03-28T11:12:43.430Z,16.73
2019-03-28T11:15:13.237Z,15.93
2019-03-28T11:17:41.012Z,16.63
2019-03-28T11:20:09.773Z,14.57
2019-03-28T11:22:37.664Z,12.13
2019-03-28T11:25:06.408Z,11.77
2019-03-28T11:27:34.224Z,9.20
2019-03-28T11:30:02.197Z,8.67
2019-03-28T11:32:29.970Z,8.07
2019-03-28T11:34:57.624Z,8.53
2019-03-28T11:37:26.701Z,11.13
2019-03-28T11:39:54.938Z,16.50
2019-03-28T11:42:22.654Z,18.60
2019-03-28T11:44:50.440Z,13.03
2019-03-28T11:47:18.191Z,10.20
2019-03-28T11:49:45.949Z,9.50
2019-03-28T11:52:13.577Z,8.50
2019-03-28T11:54:41.394Z,9.73
2019-03-28T11:57:09.135Z,8.17
2019-03-28T11:59:36.916Z,13.97
2019-03-28T12:02:19.279Z,9.45
2019-03-28T12:04:34.905Z,10.17
2019-03-28T12:07:02.673Z,11.43
2019-03-28T12:09:30.460Z,7.50
2019-03-28T12:11:58.318Z,7.50
2019-03-28T12:14:26.082Z,9.53
2019-03-28T12:16:53.846Z,8.50
2019-03-28T12:19:21.503Z,8.47
2019-03-28T12:21:49.297Z,10.77
2019-03-28T12:24:17.016Z,11.87
2019-03-28T12:26:44.759Z,16.93
2019-03-28T12:29:12.499Z,10.63
2019-03-28T12:31:40.342Z,6.73
2019-03-28T12:34:08.107Z,7.97
2019-03-28T12:36:35.743Z,5.90
2019-03-28T12:39:04.611Z,5.77
2019-03-28T12:41:32.426Z,8.83
2019-03-28T12:44:00.113Z,7.30
2019-03-28T12:46:27.849Z,10.23
2019-03-28T12:48:55.626Z,10.47
2019-03-28T12:51:23.372Z,8.07
2019-03-28T12:53:51.074Z,8.43
2019-03-28T12:56:18.790Z,9.33
2019-03-28T12:58:46.580Z,8.20
2019-03-28T13:01:15.207Z,8.77
2019-03-28T13:03:45.865Z,9.37
2019-03-28T13:06:12.213Z,9.77
2019-03-28T13:08:39.893Z,9.43
2019-03-28T13:11:07.644Z,11.53
2019-03-28T13:13:35.321Z,11.50
2019-03-28T13:16:03.097Z,8.87
2019-03-28T13:18:30.952Z,6.73
2019-03-28T13:21:12.353Z,6.97
2019-03-28T13:23:28.117Z,7.43
2019-03-28T13:25:55.873Z,6.50
2019-03-28T13:28:23.666Z,7.07
2019-03-28T13:30:51.423Z,9.00
2019-03-28T13:33:19.188Z,12.17
2019-03-28T13:35:46.967Z,13.47
2019-03-28T13:38:14.808Z,15.47
2019-03-28T13:40:42.482Z,16.73
2019-03-28T13:43:10.265Z,23.43
2019-03-28T13:45:38.013Z,16.33
2019-03-28T13:48:05.749Z,14.20
2019-03-28T13:50:33.558Z,10.63
2019-03-28T13:53:01.236Z,56.27
2019-03-28T13:55:28.918Z,22.77
2019-03-28T13:57:56.655Z,20.83
2019-03-28T14:00:25.941Z,30.47
2019-03-28T14:02:57.277Z,10.90
2019-03-28T14:05:23.010Z,28.33
2019-03-28T14:07:50.773Z,21.17
2019-03-28T14:10:21.593Z,12.33
2019-03-28T14:12:47.905Z,19.13
2019-03-28T14:15:15.709Z,16.27
2019-03-28T14:17:43.561Z,13.77
2019-03-28T14:20:11.757Z,18.33
2019-03-28T14:22:39.630Z,23.07
2019-03-28T14:25:08.008Z,14.40
2019-03-28T14:27:35.772Z,18.23
2019-03-28T14:30:03.952Z,22.63
2019-03-28T14:32:33.038Z,13.50
2019-03-28T14:35:01.017Z,16.73
2019-03-28T14:37:29.506Z,16.13
2019-03-28T14:39:57.165Z,20.83
2019-03-28T14:42:24.940Z,22.07
2019-03-28T14:44:52.899Z,21.97
2019-03-28T14:47:20.674Z,40.87
2019-03-28T14:49:48.430Z,24.17
2019-03-28T14:52:16.190Z,39.33
2019-03-28T14:54:43.902Z,34.10
2019-03-28T14:57:12.204Z,48.57
2019-03-28T14:59:40.111Z,78.97
2019-03-28T15:02:08.980Z,73.37
2019-03-28T15:04:36.872Z,95.47
2019-03-28T15:07:07.148Z,41.17
2019-03-28T15:09:35.555Z,147.57
2019-03-28T15:12:03.427Z,121.20
2019-03-28T15:14:31.313Z,215.23
2019-03-28T15:16:59.182Z,54.90
2019-03-28T15:19:26.934Z,30.87
2019-03-28T15:21:54.646Z,86.23
2019-03-28T15:24:22.550Z,76.97
2019-03-28T15:26:50.438Z,82.33
2019-03-28T15:29:18.299Z,84.43
2019-03-28T15:31:45.964Z,238.97
2019-03-28T15:34:13.743Z,93.83
2019-03-28T15:36:42.186Z,122.40
2019-03-28T15:39:10.187Z,58.67
2019-03-28T15:41:37.978Z,59.63
2019-03-28T15:44:05.716Z,59.27
2019-03-28T15:46:33.506Z,49.50
2019-03-28T15:49:01.814Z,56.40
2019-03-28T15:51:29.631Z,47.93
2019-03-28T15:53:57.423Z,16.73
2019-03-28T15:56:25.125Z,26.97
2019-03-28T15:58:52.784Z,38.20
2019-03-28T16:01:20.709Z,60.50
2019-03-28T16:03:53.239Z,82.67
2019-03-28T16:06:17.873Z,90.63
2019-03-28T16:08:45.645Z,98.13
2019-03-28T16:11:13.616Z,56.57
2019-03-28T16:13:41.378Z,35.87
2019-03-28T16:16:09.129Z,28.23
2019-03-28T16:18:36.916Z,23.17
2019-03-28T16:21:04.677Z,45.33
2019-03-28T16:23:32.446Z,51.13
2019-03-28T16:26:00.604Z,24.52
2019-03-28T16:28:28.500Z,22.87
2019-03-28T16:30:56.132Z,15.03
2019-03-28T16:33:24.021Z,16.23
2019-03-28T16:35:51.887Z,22.70
2019-03-28T16:38:19.859Z,36.97
2019-03-28T16:40:47.724Z,20.40
2019-03-28T16:43:15.372Z,20.10
2019-03-28T16:45:43.155Z,15.10
2019-03-28T16:48:10.813Z,28.43
2019-03-28T16:50:38.483Z,21.37
2019-03-28T16:53:06.333Z,15.07
2019-03-28T16:55:33.995Z,16.43
2019-03-28T16:58:01.776Z,17.83
2019-03-28T17:00:38.781Z,16.03
2019-03-28T17:03:06.729Z,22.27
2019-03-28T17:05:34.841Z,16.50
2019-03-28T17:08:02.674Z,17.43
2019-03-28T17:10:43.445Z,16.40
2019-03-28T17:13:11.319Z,20.47
2019-03-28T17:15:39.087Z,19.53
2019-03-28T17:18:06.949Z,34.73
2019-03-28T17:20:34.701Z,62.07
2019-03-28T17:23:02.715Z,72.53
2019-03-28T17:25:30.344Z,60.47
2019-03-28T17:27:58.108Z,91.97
2019-03-28T17:30:27.003Z,120.00
2019-03-28T17:32:54.840Z,53.03
2019-03-28T17:35:22.738Z,36.37
2019-03-28T17:37:50.657Z,38.27
2019-03-28T17:40:18.584Z,35.13
2019-03-28T17:42:47.871Z,69.27
2019-03-28T17:45:15.965Z,48.03
2019-03-28T17:47:44.211Z,200.80
2019-03-28T17:50:11.857Z,173.73
2019-03-28T17:52:39.665Z,669.53
2019-03-28T17:55:07.637Z,258.67
2019-03-28T17:57:35.351Z,895.83
2019-03-28T18:00:03.650Z,799.50
2019-03-28T18:02:31.337Z,1442.03
2019-03-28T18:05:08.934Z,263.67
2019-03-28T18:07:28.368Z,117.83
2019-03-28T18:09:56.073Z,84.37
2019-03-28T18:12:23.786Z,56.53
2019-03-28T18:14:51.498Z,60.30
2019-03-28T18:17:19.177Z,51.73
2019-03-28T18:19:47.034Z,74.10
2019-03-28T18:22:14.898Z,129.43
2019-03-28T18:24:42.672Z,76.53
2019-03-28T18:27:10.373Z,72.50
2019-03-28T18:29:38.195Z,84.23
2019-03-28T18:32:05.963Z,131.30
2019-03-28T18:34:33.610Z,91.77
2019-03-28T18:37:01.403Z,75.70
2019-03-28T18:39:29.177Z,62.90
2019-03-28T18:41:56.856Z,81.93
2019-03-28T18:44:24.895Z,43.30
2019-03-28T18:46:52.665Z,49.67
2019-03-28T18:49:20.635Z,46.23
2019-03-28T18:51:48.411Z,40.33
2019-03-28T18:54:16.156Z,36.13
2019-03-28T18:56:43.837Z,40.17
2019-03-28T18:59:11.595Z,175.87
2019-03-28T19:01:39.465Z,198.77
2019-03-28T19:04:07.333Z,183.23
2019-03-28T19:06:34.995Z,159.17
2019-03-28T19:09:02.644Z,111.10
2019-03-28T19:11:30.425Z,45.77
2019-03-28T19:13:58.087Z,35.80
2019-03-28T19:16:25.853Z,38.03
2019-03-28T19:18:53.717Z,38.53
2019-03-28T19:21:21.368Z,35.43
2019-03-28T19:23:49.159Z,32.40
2019-03-28T19:26:16.922Z,38.10
2019-03-28T19:28:44.788Z,43.17
2019-03-28T19:31:12.445Z,57.30
2019-03-28T19:33:40.904Z,51.97
2019-03-28T19:36:09.208Z,52.97
2019-03-28T19:38:36.972Z,71.93
2019-03-28T19:41:04.623Z,54.33
2019-03-28T19:43:32.609Z,53.50
2019-03-28T19:46:00.373Z,55.00
2019-03-28T19:48:28.240Z,65.77
2019-03-28T19:50:56.107Z,68.37
2019-03-28T19:53:23.868Z,58.87
2019-03-28T19:55:51.624Z,59.50
2019-03-28T19:58:19.418Z,55.20
2019-03-28T20:00:47.176Z,60.70
2019-03-28T20:03:14.958Z,55.50
2019-03-28T20:05:47.818Z,75.07
2019-03-28T20:08:15.767Z,66.07
2019-03-28T20:10:41.526Z,63.97
2019-03-28T20:13:09.507Z,61.17
2019-03-28T20:15:37.356Z,59.00
2019-03-28T20:18:05.619Z,79.70
2019-03-28T20:20:33.495Z,91.10
2019-03-28T20:23:01.368Z,72.17
2019-03-28T20:25:29.003Z,130.07
2019-03-28T20:27:56.799Z,40.07
2019-03-28T20:30:24.465Z,52.43
2019-03-28T20:32:52.334Z,47.07
2019-03-28T20:35:20.180Z,55.93
2019-03-28T20:37:47.844Z,54.60
2019-03-28T20:40:15.919Z,58.40
2019-03-28T20:42:43.614Z,55.70
2019-03-28T20:45:11.399Z,60.10
2019-03-28T20:47:39.242Z,60.43
2019-03-28T20:50:07.409Z,60.80
2019-03-28T20:52:35.682Z,67.27
2019-03-28T20:55:03.435Z,52.33
2019-03-28T20:57:31.220Z,37.93
2019-03-28T20:59:58.968Z,59.83
2019-03-28T21:02:26.745Z,64.63
2019-03-28T21:04:54.462Z,63.90
2019-03-28T21:07:22.142Z,51.37
2019-03-28T21:09:49.943Z,52.07
2019-03-28T21:12:17.911Z,62.00
2019-03-28T21:14:45.503Z,64.70
2019-03-28T21:17:13.244Z,54.83
2019-03-28T21:19:41.003Z,57.27
2019-03-28T21:22:08.879Z,57.80
2019-03-28T21:24:36.632Z,60.07
2019-03-28T21:27:04.391Z,74.00
2019-03-28T21:29:33.929Z,58.23
2019-03-28T21:32:01.796Z,48.83
2019-03-28T21:34:29.562Z,48.20
2019-03-28T21:36:58.734Z,54.73
2019-03-28T21:39:26.824Z,47.57
2019-03-28T21:41:54.590Z,57.20
2019-03-28T21:44:22.961Z,73.63
2019-03-28T21:46:50.977Z,82.53
2019-03-28T21:49:18.804Z,137.23
2019-03-28T21:51:47.662Z,150.87
2019-03-28T21:54:15.619Z,110.37
2019-03-28T21:56:43.433Z,125.83
2019-03-28T21:59:11.307Z,84.53
2019-03-28T22:01:38.970Z,46.70
2019-03-28T22:04:06.730Z,78.13
2019-03-28T22:06:42.726Z,63.23
2019-03-28T22:09:05.435Z,68.40
2019-03-28T22:11:33.116Z,77.97
2019-03-28T22:14:01.597Z,67.53
2019-03-28T22:16:29.354Z,76.77
2019-03-28T22:18:57.436Z,69.00
2019-03-28T22:21:27.418Z,83.40
2019-03-28T22:23:54.668Z,97.73
2019-03-28T22:26:22.343Z,71.40
2019-03-28T22:28:49.988Z,76.83
2019-03-28T22:31:17.697Z,67.73
2019-03-28T22:33:45.452Z,69.10
2019-03-28T22:36:13.215Z,73.83
2019-03-28T22:38:40.863Z,61.10
2019-03-28T22:41:08.748Z,70.07
2019-03-28T22:43:38.779Z,64.60
2019-03-28T22:46:05.937Z,65.40
2019-03-28T22:48:33.681Z,68.60
2019-03-28T22:51:01.456Z,69.47
2019-03-28T22:53:29.421Z,71.73
2019-03-28T22:55:57.176Z,80.40
2019-03-28T22:58:24.949Z,70.00
2019-03-28T23:00:54.463Z,76.03
2019-03-28T23:03:22.318Z,71.37
2019-03-28T23:05:50.196Z,64.00
2019-03-28T23:08:18.073Z,64.00
2019-03-28T23:10:45.938Z,69.73
2019-03-28T23:13:13.571Z,69.77
2019-03-28T23:15:41.328Z,68.73
2019-03-28T23:18:09.157Z,73.60
2019-03-28T23:20:36.894Z,66.40
2019-03-28T23:23:04.569Z,93.90
2019-03-28T23:25:32.423Z,108.90
2019-03-28T23:28:00.189Z,120.97
2019-03-28T23:30:28.081Z,115.13
2019-03-28T23:32:56.650Z,122.40
2019-03-28T23:35:24.413Z,120.60
2019-03-28T23:37:52.198Z,105.43
2019-03-28T23:40:20.059Z,108.07
2019-03-28T23:42:47.811Z,112.40
2019-03-28T23:45:15.664Z,111.63
2019-03-28T23:47:43.623Z,112.87
2019-03-28T23:50:12.015Z,107.17
2019-03-28T23:52:40.309Z,108.37
2019-03-28T23:55:08.063Z,104.60
2019-03-28T23:57:36.045Z,115.83
